sensor_id;sensor_type;location;lat;lon;timestamp;pressure;altitude;pressure_sealevel;temperature;humidity
77235;BME280;66253;50.526;14.974;2023-04-03T00:02:07;99927.23;;;2.55;62.53
77235;BME280;66253;50.526;14.974;2023-04-03T00:04:56;99927.39;;;2.42;63.22
77235;BME280;66253;50.526;14.974;2023-04-03T00:07:25;99932.71;;;2.33;63.52
77235;BME280;66253;50.526;14.974;2023-04-03T00:10:20;99928.29;;;2.21;63.57
77235;BME280;66253;50.526;14.974;2023-04-03T00:13:17;99928.26;;;2.09;64.25
77235;BME280;66253;50.526;14.974;2023-04-03T00:19:04;99933.88;;;1.84;65.24
77235;BME280;66253;50.526;14.974;2023-04-03T00:29:16;99944.10;;;1.48;66.03
77235;BME280;66253;50.526;14.974;2023-04-03T00:31:42;99939.61;;;1.40;66.16
77235;BME280;66253;50.526;14.974;2023-04-03T00:51:40;99943.98;;;0.80;68.22
77235;BME280;66253;50.526;14.974;2023-04-03T00:54:07;99949.58;;;0.72;67.87
77235;BME280;66253;50.526;14.974;2023-04-03T00:56:36;99952.14;;;0.66;67.48
77235;BME280;66253;50.526;14.974;2023-04-03T00:59:44;99952.66;;;0.59;67.39
77235;BME280;66253;50.526;14.974;2023-04-03T01:13:22;99964.65;;;0.39;67.08
77235;BME280;66253;50.526;14.974;2023-04-03T01:20:32;99969.55;;;0.32;66.94
77235;BME280;66253;50.526;14.974;2023-04-03T01:26:46;99965.86;;;0.23;66.04
77235;BME280;66253;50.526;14.974;2023-04-03T01:29:34;99965.36;;;0.22;65.69
77235;BME280;66253;50.526;14.974;2023-04-03T01:32:41;99962.67;;;0.21;65.34
77235;BME280;66253;50.526;14.974;2023-04-03T01:35:11;99968.06;;;0.19;65.66
77235;BME280;66253;50.526;14.974;2023-04-03T01:37:37;99967.55;;;0.16;65.91
77235;BME280;66253;50.526;14.974;2023-04-03T01:40:27;99973.11;;;0.11;65.95
77235;BME280;66253;50.526;14.974;2023-04-03T01:45:47;99970.27;;;0.03;66.30
77235;BME280;66253;50.526;14.974;2023-04-03T01:48:16;99969.60;;;-0.02;66.10
77235;BME280;66253;50.526;14.974;2023-04-03T01:51:00;99969.27;;;-0.05;66.23
77235;BME280;66253;50.526;14.974;2023-04-03T01:53:29;99963.21;;;-0.08;66.28
77235;BME280;66253;50.526;14.974;2023-04-03T01:56:01;99966.08;;;-0.09;66.19
77235;BME280;66253;50.526;14.974;2023-04-03T01:58:49;99964.39;;;-0.10;66.42
77235;BME280;66253;50.526;14.974;2023-04-03T02:01:15;99962.05;;;-0.11;66.64
77235;BME280;66253;50.526;14.974;2023-04-03T02:04:13;99965.07;;;-0.12;66.71
77235;BME280;66253;50.526;14.974;2023-04-03T02:07:21;99961.20;;;-0.14;66.78
77235;BME280;66253;50.526;14.974;2023-04-03T02:09:55;99962.05;;;-0.16;67.00
77235;BME280;66253;50.526;14.974;2023-04-03T02:12:23;99964.73;;;-0.18;67.30
77235;BME280;66253;50.526;14.974;2023-04-03T02:14:57;99963.90;;;-0.21;67.43
77235;BME280;66253;50.526;14.974;2023-04-03T02:17:22;99965.24;;;-0.23;67.23
77235;BME280;66253;50.526;14.974;2023-04-03T02:19:48;99963.89;;;-0.25;67.67
77235;BME280;66253;50.526;14.974;2023-04-03T02:22:30;99962.22;;;-0.29;67.67
77235;BME280;66253;50.526;14.974;2023-04-03T02:25:07;99965.23;;;-0.32;67.67
77235;BME280;66253;50.526;14.974;2023-04-03T02:27:33;99966.41;;;-0.37;67.70
77235;BME280;66253;50.526;14.974;2023-04-03T02:30:19;99968.92;;;-0.40;67.79
77235;BME280;66253;50.526;14.974;2023-04-03T02:35:53;99974.13;;;-0.41;67.66
77235;BME280;66253;50.526;14.974;2023-04-03T02:38:27;99974.80;;;-0.39;67.67
77235;BME280;66253;50.526;14.974;2023-04-03T02:41:13;99975.30;;;-0.40;67.90
77235;BME280;66253;50.526;14.974;2023-04-03T02:44:55;99976.31;;;-0.43;67.79
77235;BME280;66253;50.526;14.974;2023-04-03T02:47:09;99979.83;;;-0.46;67.96
77235;BME280;66253;50.526;14.974;2023-04-03T02:49:40;99979.67;;;-0.49;67.70
77235;BME280;66253;50.526;14.974;2023-04-03T02:52:34;99983.18;;;-0.52;67.76
77235;BME280;66253;50.526;14.974;2023-04-03T02:55:00;99985.19;;;-0.58;68.18
77235;BME280;66253;50.526;14.974;2023-04-03T02:57:28;99991.05;;;-0.61;68.45
77235;BME280;66253;50.526;14.974;2023-04-03T03:00:02;99998.42;;;-0.65;68.44
77235;BME280;66253;50.526;14.974;2023-04-03T03:02:49;100001.45;;;-0.67;68.50
77235;BME280;66253;50.526;14.974;2023-04-03T03:05:29;100006.31;;;-0.70;68.75
77235;BME280;66253;50.526;14.974;2023-04-03T03:08:05;100008.98;;;-0.73;68.35
77235;BME280;66253;50.526;14.974;2023-04-03T03:10:34;100013.02;;;-0.73;68.31
77235;BME280;66253;50.526;14.974;2023-04-03T03:13:00;100017.52;;;-0.74;68.55
77235;BME280;66253;50.526;14.974;2023-04-03T03:15:31;100016.19;;;-0.77;68.53
77235;BME280;66253;50.526;14.974;2023-04-03T03:18:07;100014.16;;;-0.81;68.75
77235;BME280;66253;50.526;14.974;2023-04-03T03:20:33;100013.63;;;-0.86;69.00
77235;BME280;66253;50.526;14.974;2023-04-03T03:23:02;100010.77;;;-0.91;68.84
77235;BME280;66253;50.526;14.974;2023-04-03T03:25:41;100013.27;;;-0.97;69.26
77235;BME280;66253;50.526;14.974;2023-04-03T03:28:07;100019.11;;;-1.02;69.50
77235;BME280;66253;50.526;14.974;2023-04-03T03:30:33;100019.09;;;-1.07;69.42
77235;BME280;66253;50.526;14.974;2023-04-03T03:33:00;100024.10;;;-1.11;69.62
77235;BME280;66253;50.526;14.974;2023-04-03T03:35:35;100026.94;;;-1.14;69.85
77235;BME280;66253;50.526;14.974;2023-04-03T03:38:00;100025.41;;;-1.16;69.96
77235;BME280;66253;50.526;14.974;2023-04-03T03:40:26;100026.41;;;-1.20;69.93
77235;BME280;66253;50.526;14.974;2023-04-03T03:42:52;100027.58;;;-1.21;70.14
77235;BME280;66253;50.526;14.974;2023-04-03T03:45:20;100031.09;;;-1.24;70.24
77235;BME280;66253;50.526;14.974;2023-04-03T03:51:46;100030.20;;;-1.29;70.47
77235;BME280;66253;50.526;14.974;2023-04-03T03:54:23;100029.21;;;-1.31;70.53
77235;BME280;66253;50.526;14.974;2023-04-03T03:56:49;100031.20;;;-1.33;70.60
77235;BME280;66253;50.526;14.974;2023-04-03T03:59:15;100034.05;;;-1.34;70.53
77235;BME280;66253;50.526;14.974;2023-04-03T04:02:02;100034.55;;;-1.34;70.64
77235;BME280;66253;50.526;14.974;2023-04-03T04:04:28;100034.38;;;-1.35;70.62
77235;BME280;66253;50.526;14.974;2023-04-03T04:06:53;100038.73;;;-1.36;70.80
77235;BME280;66253;50.526;14.974;2023-04-03T04:09:19;100038.89;;;-1.36;70.83
77235;BME280;66253;50.526;14.974;2023-04-03T04:11:51;100038.22;;;-1.37;70.92
77235;BME280;66253;50.526;14.974;2023-04-03T04:14:17;100037.73;;;-1.38;71.15
77235;BME280;66253;50.526;14.974;2023-04-03T04:16:46;100041.08;;;-1.38;71.33
77235;BME280;66253;50.526;14.974;2023-04-03T04:19:12;100044.58;;;-1.39;71.40
77235;BME280;66253;50.526;14.974;2023-04-03T04:21:38;100047.75;;;-1.40;71.11
77235;BME280;66253;50.526;14.974;2023-04-03T04:24:10;100052.78;;;-1.42;71.29
77235;BME280;66253;50.526;14.974;2023-04-03T04:26:36;100053.10;;;-1.43;71.73
77235;BME280;66253;50.526;14.974;2023-04-03T04:29:02;100057.77;;;-1.45;71.41
77235;BME280;66253;50.526;14.974;2023-04-03T04:31:28;100059.27;;;-1.48;71.41
77235;BME280;66253;50.526;14.974;2023-04-03T04:33:54;100062.43;;;-1.51;71.82
77235;BME280;66253;50.526;14.974;2023-04-03T04:36:20;100065.26;;;-1.55;72.00
77235;BME280;66253;50.526;14.974;2023-04-03T04:38:57;100072.11;;;-1.58;71.92
77235;BME280;66253;50.526;14.974;2023-04-03T04:41:23;100070.90;;;-1.62;72.12
77235;BME280;66253;50.526;14.974;2023-04-03T04:43:53;100076.58;;;-1.65;72.15
77235;BME280;66253;50.526;14.974;2023-04-03T04:46:34;100073.86;;;-1.69;72.23
77235;BME280;66253;50.526;14.974;2023-04-03T04:49:00;100073.86;;;-1.72;72.51
77235;BME280;66253;50.526;14.974;2023-04-03T04:51:26;100076.86;;;-1.72;72.61
77235;BME280;66253;50.526;14.974;2023-04-03T04:54:11;100077.55;;;-1.70;72.47
77235;BME280;66253;50.526;14.974;2023-04-03T04:56:40;100082.25;;;-1.68;72.60
77235;BME280;66253;50.526;14.974;2023-04-03T04:59:09;100082.79;;;-1.64;72.67
77235;BME280;66253;50.526;14.974;2023-04-03T05:01:37;100088.34;;;-1.59;72.41
77235;BME280;66253;50.526;14.974;2023-04-03T05:04:05;100089.73;;;-1.53;72.54
77235;BME280;66253;50.526;14.974;2023-04-03T05:06:50;100093.79;;;-1.46;72.64
77235;BME280;66253;50.526;14.974;2023-04-03T05:09:25;100091.58;;;-1.26;72.47
77235;BME280;66253;50.526;14.974;2023-04-03T05:11:51;100087.23;;;-0.35;71.49
77235;BME280;66253;50.526;14.974;2023-04-03T05:14:26;100084.05;;;0.84;70.51
77235;BME280;66253;50.526;14.974;2023-04-03T05:16:51;100080.55;;;2.10;68.25
77235;BME280;66253;50.526;14.974;2023-04-03T05:19:20;100074.29;;;3.30;66.99
77235;BME280;66253;50.526;14.974;2023-04-03T05:21:46;100072.80;;;4.43;64.40
77235;BME280;66253;50.526;14.974;2023-04-03T05:24:15;100072.34;;;5.46;62.65
77235;BME280;66253;50.526;14.974;2023-04-03T05:26:44;100074.73;;;6.49;60.85
77235;BME280;66253;50.526;14.974;2023-04-03T05:29:10;100071.45;;;7.44;59.09
77235;BME280;66253;50.526;14.974;2023-04-03T05:31:39;100071.60;;;8.32;57.09
77235;BME280;66253;50.526;14.974;2023-04-03T05:34:05;100071.70;;;9.18;55.00
77235;BME280;66253;50.526;14.974;2023-04-03T05:36:31;100070.81;;;10.00;53.73
77235;BME280;66253;50.526;14.974;2023-04-03T05:39:03;100065.73;;;10.73;51.38
77235;BME280;66253;50.526;14.974;2023-04-03T05:41:31;100069.55;;;11.11;48.55
77235;BME280;66253;50.526;14.974;2023-04-03T05:43:57;100067.20;;;11.45;47.10
77235;BME280;66253;50.526;14.974;2023-04-03T05:46:22;100075.52;;;11.83;46.97
77235;BME280;66253;50.526;14.974;2023-04-03T05:48:50;100075.16;;;12.30;45.20
77235;BME280;66253;50.526;14.974;2023-04-03T05:51:20;100079.92;;;12.62;42.44
77235;BME280;66253;50.526;14.974;2023-04-03T05:53:47;100077.76;;;12.63;42.24
77235;BME280;66253;50.526;14.974;2023-04-03T05:56:14;100082.05;;;13.07;42.56
77235;BME280;66253;50.526;14.974;2023-04-03T05:58:40;100082.67;;;13.34;40.68
77235;BME280;66253;50.526;14.974;2023-04-03T06:01:06;100080.64;;;13.53;40.04
77235;BME280;66253;50.526;14.974;2023-04-03T06:03:32;100089.21;;;13.63;38.55
77235;BME280;66253;50.526;14.974;2023-04-03T06:05:57;100088.39;;;12.87;37.19
77235;BME280;66253;50.526;14.974;2023-04-03T06:08:23;100089.63;;;12.00;38.42
77235;BME280;66253;50.526;14.974;2023-04-03T06:10:57;100099.02;;;11.01;39.43
77235;BME280;66253;50.526;14.974;2023-04-03T06:13:22;100099.64;;;9.91;41.20
77235;BME280;66253;50.526;14.974;2023-04-03T06:15:49;100102.63;;;9.02;41.61
77235;BME280;66253;50.526;14.974;2023-04-03T06:18:14;100105.67;;;8.20;43.11
77235;BME280;66253;50.526;14.974;2023-04-03T06:20:43;100111.95;;;7.48;44.19
77235;BME280;66253;50.526;14.974;2023-04-03T06:23:09;100112.95;;;7.00;44.85
77235;BME280;66253;50.526;14.974;2023-04-03T06:25:36;100118.02;;;6.94;45.03
77235;BME280;66253;50.526;14.974;2023-04-03T06:28:08;100121.04;;;7.57;45.01
77235;BME280;66253;50.526;14.974;2023-04-03T06:30:36;100119.49;;;9.06;43.52
77235;BME280;66253;50.526;14.974;2023-04-03T06:33:02;100118.52;;;10.44;42.35
77235;BME280;66253;50.526;14.974;2023-04-03T06:35:28;100120.08;;;11.52;39.37
77235;BME280;66253;50.526;14.974;2023-04-03T06:37:56;100114.95;;;12.36;37.36
77235;BME280;66253;50.526;14.974;2023-04-03T06:40:24;100113.86;;;13.05;36.26
77235;BME280;66253;50.526;14.974;2023-04-03T06:42:50;100112.21;;;13.66;34.30
77235;BME280;66253;50.526;14.974;2023-04-03T06:45:17;100113.87;;;14.38;34.54
77235;BME280;66253;50.526;14.974;2023-04-03T06:47:43;100117.00;;;15.16;34.42
77235;BME280;66253;50.526;14.974;2023-04-03T06:50:10;100113.90;;;15.89;32.51
77235;BME280;66253;50.526;14.974;2023-04-03T06:52:37;100109.61;;;16.66;33.47
77235;BME280;66253;50.526;14.974;2023-04-03T06:55:03;100112.91;;;17.31;30.13
77235;BME280;66253;50.526;14.974;2023-04-03T06:57:29;100119.92;;;17.64;29.51
77235;BME280;66253;50.526;14.974;2023-04-03T06:59:55;100124.36;;;17.94;28.75
77235;BME280;66253;50.526;14.974;2023-04-03T07:02:20;100124.52;;;18.40;29.56
77235;BME280;66253;50.526;14.974;2023-04-03T07:04:46;100126.97;;;18.95;28.49
77235;BME280;66253;50.526;14.974;2023-04-03T07:07:12;100125.30;;;19.50;28.53
77235;BME280;66253;50.526;14.974;2023-04-03T07:09:37;100126.92;;;20.14;27.60
77235;BME280;66253;50.526;14.974;2023-04-03T07:12:03;100128.01;;;20.46;27.21
77235;BME280;66253;50.526;14.974;2023-04-03T07:14:28;100128.52;;;20.67;25.98
77235;BME280;66253;50.526;14.974;2023-04-03T07:16:54;100133.08;;;20.26;26.65
77235;BME280;66253;50.526;14.974;2023-04-03T07:19:20;100141.00;;;19.24;25.30
77235;BME280;66253;50.526;14.974;2023-04-03T07:21:46;100145.77;;;17.27;26.59
77235;BME280;66253;50.526;14.974;2023-04-03T07:24:12;100143.56;;;15.63;28.89
77235;BME280;66253;50.526;14.974;2023-04-03T07:26:38;100150.20;;;14.67;29.34
77235;BME280;66253;50.526;14.974;2023-04-03T07:29:03;100155.77;;;14.08;30.32
77235;BME280;66253;50.526;14.974;2023-04-03T07:31:29;100154.80;;;14.04;31.05
77235;BME280;66253;50.526;14.974;2023-04-03T07:33:54;100155.14;;;14.22;30.94
77235;BME280;66253;50.526;14.974;2023-04-03T07:36:22;100153.73;;;13.75;30.16
77235;BME280;66253;50.526;14.974;2023-04-03T07:38:47;100154.47;;;12.44;31.22
77235;BME280;66253;50.526;14.974;2023-04-03T07:41:15;100161.84;;;11.44;33.02
77235;BME280;66253;50.526;14.974;2023-04-03T07:43:41;100164.98;;;10.57;33.88
77235;BME280;66253;50.526;14.974;2023-04-03T07:46:08;100162.72;;;9.89;36.43
77235;BME280;66253;50.526;14.974;2023-04-03T07:48:34;100167.98;;;9.43;36.84
77235;BME280;66253;50.526;14.974;2023-04-03T07:51:02;100167.13;;;8.95;36.38
77235;BME280;66253;50.526;14.974;2023-04-03T07:53:29;100163.91;;;8.47;37.69
77235;BME280;66253;50.526;14.974;2023-04-03T07:55:58;100170.67;;;7.98;38.54
77235;BME280;66253;50.526;14.974;2023-04-03T07:58:24;100169.61;;;7.59;39.79
77235;BME280;66253;50.526;14.974;2023-04-03T08:00:51;100171.98;;;7.35;40.05
77235;BME280;66253;50.526;14.974;2023-04-03T08:03:17;100169.45;;;7.09;41.09
77235;BME280;66253;50.526;14.974;2023-04-03T08:05:47;100167.65;;;6.93;41.27
77235;BME280;66253;50.526;14.974;2023-04-03T08:08:15;100167.17;;;6.78;41.56
77235;BME280;66253;50.526;14.974;2023-04-03T08:10:45;100165.18;;;6.63;41.89
77235;BME280;66253;50.526;14.974;2023-04-03T08:13:13;100167.32;;;6.38;42.26
77235;BME280;66253;50.526;14.974;2023-04-03T08:15:39;100169.39;;;6.29;43.04
77235;BME280;66253;50.526;14.974;2023-04-03T08:18:07;100170.26;;;6.28;43.67
77235;BME280;66253;50.526;14.974;2023-04-03T08:20:37;100163.81;;;6.28;43.36
77235;BME280;66253;50.526;14.974;2023-04-03T08:23:03;100160.23;;;6.28;43.54
77235;BME280;66253;50.526;14.974;2023-04-03T08:25:30;100160.86;;;6.31;43.00
77235;BME280;66253;50.526;14.974;2023-04-03T08:27:56;100163.67;;;6.27;43.12
77235;BME280;66253;50.526;14.974;2023-04-03T08:30:21;100159.99;;;6.17;42.75
77235;BME280;66253;50.526;14.974;2023-04-03T08:32:47;100161.09;;;6.14;42.93
77235;BME280;66253;50.526;14.974;2023-04-03T08:35:13;100158.41;;;6.12;42.55
77235;BME280;66253;50.526;14.974;2023-04-03T08:37:39;100162.08;;;6.07;42.64
77235;BME280;66253;50.526;14.974;2023-04-03T08:40:10;100165.36;;;6.04;42.52
77235;BME280;66253;50.526;14.974;2023-04-03T08:50:40;100166.83;;;6.07;42.85
77235;BME280;66253;50.526;14.974;2023-04-03T08:53:13;100165.41;;;6.17;43.61
77235;BME280;66253;50.526;14.974;2023-04-03T08:55:44;100169.31;;;6.32;43.20
77235;BME280;66253;50.526;14.974;2023-04-03T08:58:31;100162.61;;;6.35;42.62
77235;BME280;66253;50.526;14.974;2023-04-03T09:01:05;100163.15;;;6.49;42.70
77235;BME280;66253;50.526;14.974;2023-04-03T09:03:33;100166.84;;;6.50;41.86
77235;BME280;66253;50.526;14.974;2023-04-03T09:09:35;100171.63;;;6.42;41.80
77235;BME280;66253;50.526;14.974;2023-04-03T09:12:23;100175.23;;;6.32;41.96
77235;BME280;66253;50.526;14.974;2023-04-03T09:17:46;100168.32;;;6.17;41.57
77235;BME280;66253;50.526;14.974;2023-04-03T09:20:24;100175.98;;;6.23;41.78
77235;BME280;66253;50.526;14.974;2023-04-03T09:22:51;100181.45;;;6.36;42.64
77235;BME280;66253;50.526;14.974;2023-04-03T09:25:33;100187.21;;;6.44;40.66
77235;BME280;66253;50.526;14.974;2023-04-03T09:28:04;100186.59;;;6.41;40.83
77235;BME280;66253;50.526;14.974;2023-04-03T09:30:36;100188.40;;;6.44;40.64
77235;BME280;66253;50.526;14.974;2023-04-03T09:33:03;100190.60;;;6.44;40.71
77235;BME280;66253;50.526;14.974;2023-04-03T09:35:37;100190.55;;;6.46;40.44
77235;BME280;66253;50.526;14.974;2023-04-03T09:40:40;100194.25;;;6.47;41.13
77235;BME280;66253;50.526;14.974;2023-04-03T09:43:21;100196.41;;;6.34;40.69
77235;BME280;66253;50.526;14.974;2023-04-03T09:48:50;100196.17;;;6.23;41.07
77235;BME280;66253;50.526;14.974;2023-04-03T09:51:16;100203.71;;;6.11;40.46
77235;BME280;66253;50.526;14.974;2023-04-03T09:53:44;100200.73;;;6.00;41.07
77235;BME280;66253;50.526;14.974;2023-04-03T09:56:21;100197.32;;;5.93;41.93
77235;BME280;66253;50.526;14.974;2023-04-03T09:59:07;100200.33;;;5.95;42.96
77235;BME280;66253;50.526;14.974;2023-04-03T10:01:38;100200.65;;;5.96;42.11
77235;BME280;66253;50.526;14.974;2023-04-03T10:04:18;100201.04;;;5.92;42.40
77235;BME280;66253;50.526;14.974;2023-04-03T10:06:53;100208.30;;;5.85;42.31
77235;BME280;66253;50.526;14.974;2023-04-03T10:09:23;100210.71;;;5.75;42.37
77235;BME280;66253;50.526;14.974;2023-04-03T10:12:08;100206.66;;;5.66;42.43
77235;BME280;66253;50.526;14.974;2023-04-03T10:15:11;100205.25;;;5.52;42.21
77235;BME280;66253;50.526;14.974;2023-04-03T10:17:52;100208.35;;;5.40;42.82
77235;BME280;66253;50.526;14.974;2023-04-03T10:28:40;100198.08;;;5.09;42.90
77235;BME280;66253;50.526;14.974;2023-04-03T10:34:05;100201.02;;;5.05;42.73
77235;BME280;66253;50.526;14.974;2023-04-03T10:36:41;100197.71;;;5.02;42.84
77235;BME280;66253;50.526;14.974;2023-04-03T10:42:26;100197.80;;;5.05;43.29
77235;BME280;66253;50.526;14.974;2023-04-03T10:50:13;100193.41;;;5.05;43.99
77235;BME280;66253;50.526;14.974;2023-04-03T10:53:04;100189.67;;;5.06;43.01
77235;BME280;66253;50.526;14.974;2023-04-03T10:55:58;100187.31;;;5.05;43.59
77235;BME280;66253;50.526;14.974;2023-04-03T10:58:32;100183.69;;;5.19;44.71
77235;BME280;66253;50.526;14.974;2023-04-03T11:01:11;100185.93;;;5.43;43.99
77235;BME280;66253;50.526;14.974;2023-04-03T11:06:39;100181.94;;;5.56;41.27
77235;BME280;66253;50.526;14.974;2023-04-03T11:12:50;100172.77;;;5.49;41.51
77235;BME280;66253;50.526;14.974;2023-04-03T11:15:29;100172.90;;;5.59;42.76
77235;BME280;66253;50.526;14.974;2023-04-03T11:18:06;100165.53;;;5.72;42.17
77235;BME280;66253;50.526;14.974;2023-04-03T11:20:36;100164.55;;;5.77;42.08
77235;BME280;66253;50.526;14.974;2023-04-03T11:23:06;100163.86;;;5.78;41.23
77235;BME280;66253;50.526;14.974;2023-04-03T11:25:42;100167.53;;;5.74;40.95
77235;BME280;66253;50.526;14.974;2023-04-03T11:28:14;100165.54;;;5.71;42.31
77235;BME280;66253;50.526;14.974;2023-04-03T11:33:21;100159.55;;;5.90;41.88
77235;BME280;66253;50.526;14.974;2023-04-03T11:35:57;100160.13;;;5.86;41.28
77235;BME280;66253;50.526;14.974;2023-04-03T11:38:32;100164.20;;;5.78;41.36
77235;BME280;66253;50.526;14.974;2023-04-03T11:41:03;100164.41;;;5.76;41.66
77235;BME280;66253;50.526;14.974;2023-04-03T11:43:31;100160.21;;;5.82;41.62
77235;BME280;66253;50.526;14.974;2023-04-03T11:46:05;100154.26;;;5.84;41.94
77235;BME280;66253;50.526;14.974;2023-04-03T11:48:41;100159.91;;;5.97;42.94
77235;BME280;66253;50.526;14.974;2023-04-03T11:53:43;100153.77;;;6.15;41.93
77235;BME280;66253;50.526;14.974;2023-04-03T12:01:49;100152.23;;;6.23;42.17
77235;BME280;66253;50.526;14.974;2023-04-03T12:04:18;100159.16;;;6.24;41.99
77235;BME280;66253;50.526;14.974;2023-04-03T12:09:53;100160.98;;;5.96;41.00
77235;BME280;66253;50.526;14.974;2023-04-03T12:12:31;100162.13;;;5.88;41.19
77235;BME280;66253;50.526;14.974;2023-04-03T12:17:46;100155.98;;;5.82;42.14
77235;BME280;66253;50.526;14.974;2023-04-03T12:23:36;100158.83;;;5.93;42.05
77235;BME280;66253;50.526;14.974;2023-04-03T12:26:26;100153.50;;;5.87;41.09
77235;BME280;66253;50.526;14.974;2023-04-03T12:28:51;100148.90;;;5.80;40.74
77235;BME280;66253;50.526;14.974;2023-04-03T12:31:19;100153.25;;;5.75;40.40
77235;BME280;66253;50.526;14.974;2023-04-03T12:37:12;100149.74;;;5.88;41.60
77235;BME280;66253;50.526;14.974;2023-04-03T12:43:05;100158.58;;;6.12;42.57
77235;BME280;66253;50.526;14.974;2023-04-03T12:45:43;100157.44;;;6.10;42.06
77235;BME280;66253;50.526;14.974;2023-04-03T12:48:15;100157.77;;;6.03;41.62
77235;BME280;66253;50.526;14.974;2023-04-03T12:50:45;100158.34;;;5.91;40.79
77235;BME280;66253;50.526;14.974;2023-04-03T12:53:18;100152.64;;;5.80;41.58
77235;BME280;66253;50.526;14.974;2023-04-03T12:55:49;100150.66;;;5.69;40.67
77235;BME280;66253;50.526;14.974;2023-04-03T12:58:26;100146.77;;;5.61;41.02
77235;BME280;66253;50.526;14.974;2023-04-03T13:01:22;100146.60;;;5.61;41.03
77235;BME280;66253;50.526;14.974;2023-04-03T13:03:52;100145.23;;;5.61;40.75
77235;BME280;66253;50.526;14.974;2023-04-03T13:06:32;100143.98;;;5.64;41.17
77235;BME280;66253;50.526;14.974;2023-04-03T13:09:00;100147.23;;;5.64;41.96
77235;BME280;66253;50.526;14.974;2023-04-03T13:11:30;100138.78;;;5.70;42.70
77235;BME280;66253;50.526;14.974;2023-04-03T13:14:01;100146.16;;;5.82;43.08
77235;BME280;66253;50.526;14.974;2023-04-03T13:16:29;100143.47;;;5.80;42.02
77235;BME280;66253;50.526;14.974;2023-04-03T13:18:55;100140.92;;;5.73;42.32
77235;BME280;66253;50.526;14.974;2023-04-03T13:21:32;100142.97;;;5.64;42.83
77235;BME280;66253;50.526;14.974;2023-04-03T13:24:18;100145.80;;;5.58;41.69
77235;BME280;66253;50.526;14.974;2023-04-03T13:26:45;100137.51;;;5.49;42.41
77235;BME280;66253;50.526;14.974;2023-04-03T13:29:27;100132.45;;;5.56;42.95
77235;BME280;66253;50.526;14.974;2023-04-03T13:31:55;100138.16;;;5.68;41.17
77235;BME280;66253;50.526;14.974;2023-04-03T13:34:28;100131.13;;;5.72;41.29
77235;BME280;66253;50.526;14.974;2023-04-03T13:36:59;100131.31;;;5.78;41.52
77235;BME280;66253;50.526;14.974;2023-04-03T13:39:31;100129.30;;;5.85;41.80
77235;BME280;66253;50.526;14.974;2023-04-03T13:42:00;100136.10;;;5.84;41.96
77235;BME280;66253;50.526;14.974;2023-04-03T13:44:36;100133.34;;;5.78;42.60
77235;BME280;66253;50.526;14.974;2023-04-03T13:49:39;100135.36;;;5.63;41.53
77235;BME280;66253;50.526;14.974;2023-04-03T13:52:59;100137.69;;;5.57;41.48
77235;BME280;66253;50.526;14.974;2023-04-03T13:55:30;100131.16;;;5.54;41.38
77235;BME280;66253;50.526;14.974;2023-04-03T14:00:38;100122.22;;;5.67;41.66
77235;BME280;66253;50.526;14.974;2023-04-03T14:06:14;100128.34;;;5.75;41.35
77235;BME280;66253;50.526;14.974;2023-04-03T14:08:41;100127.91;;;5.63;40.44
77235;BME280;66253;50.526;14.974;2023-04-03T14:11:13;100127.48;;;5.51;40.30
77235;BME280;66253;50.526;14.974;2023-04-03T14:13:39;100129.56;;;5.40;40.12
77235;BME280;66253;50.526;14.974;2023-04-03T14:16:05;100127.35;;;5.33;40.71
77235;BME280;66253;50.526;14.974;2023-04-03T14:18:34;100126.52;;;5.31;41.59
77235;BME280;66253;50.526;14.974;2023-04-03T14:21:02;100129.19;;;5.34;41.88
77235;BME280;66253;50.526;14.974;2023-04-03T14:23:28;100128.96;;;5.36;41.95
77235;BME280;66253;50.526;14.974;2023-04-03T14:25:54;100127.85;;;5.33;42.03
77235;BME280;66253;50.526;14.974;2023-04-03T14:28:22;100128.53;;;5.32;42.42
77235;BME280;66253;50.526;14.974;2023-04-03T14:30:50;100128.11;;;5.29;41.56
77235;BME280;66253;50.526;14.974;2023-04-03T14:33:20;100124.88;;;5.21;41.60
77235;BME280;66253;50.526;14.974;2023-04-03T14:35:47;100124.83;;;5.14;40.82
77235;BME280;66253;50.526;14.974;2023-04-03T14:38:33;100119.47;;;5.10;41.21
77235;BME280;66253;50.526;14.974;2023-04-03T14:40:59;100117.45;;;5.10;41.87
77235;BME280;66253;50.526;14.974;2023-04-03T14:43:28;100113.64;;;5.15;41.80
77235;BME280;66253;50.526;14.974;2023-04-03T14:45:53;100109.14;;;5.19;42.06
77235;BME280;66253;50.526;14.974;2023-04-03T14:48:24;100114.98;;;5.24;42.51
77235;BME280;66253;50.526;14.974;2023-04-03T14:50:54;100115.79;;;5.26;43.05
77235;BME280;66253;50.526;14.974;2023-04-03T14:53:20;100115.28;;;5.26;42.67
77235;BME280;66253;50.526;14.974;2023-04-03T14:55:53;100117.21;;;5.22;43.39
77235;BME280;66253;50.526;14.974;2023-04-03T14:58:22;100117.77;;;5.20;42.83
77235;BME280;66253;50.526;14.974;2023-04-03T15:00:50;100120.02;;;5.09;42.38
77235;BME280;66253;50.526;14.974;2023-04-03T15:03:20;100120.91;;;4.97;42.71
77235;BME280;66253;50.526;14.974;2023-04-03T15:05:48;100117.77;;;4.84;43.00
77235;BME280;66253;50.526;14.974;2023-04-03T15:08:19;100118.03;;;4.79;43.61
77235;BME280;66253;50.526;14.974;2023-04-03T15:10:47;100118.55;;;4.79;42.73
77235;BME280;66253;50.526;14.974;2023-04-03T15:13:12;100114.10;;;4.81;43.77
77235;BME280;66253;50.526;14.974;2023-04-03T15:15:39;100111.45;;;4.87;43.65
77235;BME280;66253;50.526;14.974;2023-04-03T15:18:05;100112.80;;;4.87;43.21
77235;BME280;66253;50.526;14.974;2023-04-03T15:20:31;100112.91;;;4.81;43.13
77235;BME280;66253;50.526;14.974;2023-04-03T15:23:00;100116.80;;;4.72;43.67
77235;BME280;66253;50.526;14.974;2023-04-03T15:25:26;100115.82;;;4.60;43.12
77235;BME280;66253;50.526;14.974;2023-04-03T15:27:54;100119.27;;;4.46;42.21
77235;BME280;66253;50.526;14.974;2023-04-03T15:30:20;100114.80;;;4.29;43.07